createdAt,value
2022-11-19T00:00:14.994Z,7.00
2022-11-19T00:02:43.467Z,8.05
2022-11-19T00:05:11.955Z,8.45
2022-11-19T00:07:41.974Z,8.43
2022-11-19T00:10:11.153Z,6.40
2022-11-19T00:12:56.552Z,7.22
2022-11-19T00:15:25.257Z,6.72
2022-11-19T00:17:53.732Z,7.45
2022-11-19T00:20:22.155Z,8.30
2022-11-19T00:22:54.155Z,11.18
2022-11-19T00:25:23.628Z,6.18
2022-11-19T00:27:52.642Z,7.93
2022-11-19T00:30:46.395Z,7.43
2022-11-19T00:33:09.790Z,7.63
2022-11-19T00:35:38.285Z,8.07
2022-11-19T00:38:08.212Z,6.57
2022-11-19T00:40:36.677Z,6.55
2022-11-19T00:43:23.018Z,6.72
2022-11-19T00:45:51.546Z,8.43
2022-11-19T00:48:20.098Z,7.15
2022-11-19T00:50:48.602Z,7.18
2022-11-19T00:53:18.589Z,7.93
2022-11-19T00:55:47.168Z,5.82
2022-11-19T00:58:16.087Z,6.40
2022-11-19T01:00:44.589Z,6.63
2022-11-19T01:03:13.327Z,7.35
2022-11-19T01:05:41.864Z,6.13
2022-11-19T01:08:10.973Z,6.20
2022-11-19T01:10:40.884Z,6.72
2022-11-19T01:13:27.086Z,5.63
2022-11-19T01:15:55.672Z,7.28
2022-11-19T01:18:24.208Z,6.82
2022-11-19T01:20:52.821Z,6.68
2022-11-19T01:23:21.409Z,5.75
2022-11-19T01:25:51.410Z,6.22
2022-11-19T01:28:20.146Z,5.97
2022-11-19T01:30:48.789Z,6.13
2022-11-19T01:33:17.476Z,6.40
2022-11-19T01:35:46.085Z,7.65
2022-11-19T01:38:17.967Z,6.72
2022-11-19T01:40:46.712Z,5.93
2022-11-19T01:43:16.807Z,7.18
2022-11-19T01:45:48.284Z,6.80
2022-11-19T01:48:19.921Z,6.07
2022-11-19T01:50:50.888Z,6.82
2022-11-19T01:53:20.029Z,8.20
2022-11-19T01:55:48.576Z,6.22
2022-11-19T01:58:21.270Z,5.78
2022-11-19T02:00:49.701Z,5.30
2022-11-19T02:03:18.948Z,6.30
2022-11-19T02:05:47.484Z,5.80
2022-11-19T02:08:39.026Z,6.00
2022-11-19T02:11:42.241Z,5.72
2022-11-19T02:14:23.496Z,5.70
2022-11-19T02:16:56.535Z,6.00
2022-11-19T02:19:42.890Z,6.40
2022-11-19T02:22:20.194Z,6.75
2022-11-19T02:24:53.002Z,6.28
2022-11-19T02:28:16.388Z,6.00
2022-11-19T02:30:48.901Z,6.75
2022-11-19T02:33:19.773Z,6.28
2022-11-19T02:35:51.340Z,5.35
2022-11-19T02:38:28.947Z,6.57
2022-11-19T02:40:59.912Z,5.57
2022-11-19T02:43:32.420Z,6.50
2022-11-19T02:46:04.550Z,5.65
2022-11-19T02:48:35.732Z,5.50
2022-11-19T02:51:05.014Z,6.15
2022-11-19T02:53:33.705Z,5.85
2022-11-19T02:56:14.075Z,5.57
2022-11-19T02:59:02.829Z,6.70
2022-11-19T03:01:50.435Z,6.32
2022-11-19T03:04:31.281Z,6.78
2022-11-19T03:07:03.647Z,5.93
2022-11-19T03:09:32.664Z,5.45
2022-11-19T03:12:09.897Z,5.65
2022-11-19T03:15:03.270Z,5.75
2022-11-19T03:17:39.732Z,7.00
2022-11-19T03:20:12.771Z,5.50
2022-11-19T03:22:43.649Z,5.90
2022-11-19T03:25:15.786Z,5.68
2022-11-19T03:27:45.672Z,5.80
2022-11-19T03:30:14.937Z,5.80
2022-11-19T03:32:48.135Z,5.28
2022-11-19T03:35:18.871Z,5.57
2022-11-19T03:37:49.919Z,6.05
2022-11-19T03:40:19.346Z,5.97
2022-11-19T03:42:49.315Z,5.00
2022-11-19T03:45:19.853Z,5.38
2022-11-19T03:47:50.589Z,5.68
2022-11-19T03:50:22.864Z,5.38
2022-11-19T03:52:51.327Z,5.53
2022-11-19T03:55:19.896Z,5.70
2022-11-19T03:57:48.430Z,5.55
2022-11-19T04:00:19.114Z,5.30
2022-11-19T04:02:49.345Z,6.15
2022-11-19T04:05:18.014Z,5.80
2022-11-19T04:07:46.528Z,5.53
2022-11-19T04:10:15.344Z,5.78
2022-11-19T04:12:43.851Z,5.40
2022-11-19T04:15:13.080Z,5.40
2022-11-19T04:17:41.668Z,5.68
2022-11-19T04:20:12.885Z,5.13
2022-11-19T04:22:42.359Z,5.57
2022-11-19T04:25:12.663Z,5.47
2022-11-19T04:27:41.519Z,5.47
2022-11-19T04:30:12.089Z,5.00
2022-11-19T04:32:40.795Z,5.70
2022-11-19T04:35:11.227Z,5.45
2022-11-19T04:37:39.974Z,5.45
2022-11-19T04:40:10.384Z,5.00
2022-11-19T04:42:39.101Z,5.28
2022-11-19T04:45:09.505Z,5.30
2022-11-19T04:47:38.191Z,7.18
2022-11-19T04:50:08.163Z,5.43
2022-11-19T04:52:41.155Z,5.78
2022-11-19T04:55:11.738Z,5.55
2022-11-19T04:57:40.342Z,5.20
2022-11-19T05:00:10.493Z,5.78
2022-11-19T05:02:39.005Z,5.43
2022-11-19T05:05:09.270Z,6.35
2022-11-19T05:07:43.150Z,5.80
2022-11-19T05:10:12.022Z,5.60
2022-11-19T05:12:40.573Z,5.57
2022-11-19T05:15:10.750Z,6.18
2022-11-19T05:17:40.141Z,6.47
2022-11-19T05:20:10.683Z,6.45
2022-11-19T05:22:39.172Z,5.78
2022-11-19T05:25:09.982Z,6.75
2022-11-19T05:27:38.458Z,6.15
2022-11-19T05:30:08.971Z,5.75
2022-11-19T05:32:37.465Z,5.57
2022-11-19T05:35:06.757Z,6.20
2022-11-19T05:37:35.280Z,6.07
2022-11-19T05:40:03.923Z,5.93
2022-11-19T05:42:33.833Z,6.30
2022-11-19T05:45:02.436Z,6.30
2022-11-19T05:47:30.898Z,5.85
2022-11-19T05:49:59.515Z,6.50
2022-11-19T05:52:28.056Z,6.25
2022-11-19T05:54:56.679Z,6.45
2022-11-19T05:57:25.139Z,5.65
2022-11-19T05:59:55.084Z,5.85
2022-11-19T06:02:25.542Z,6.30
2022-11-19T06:04:54.197Z,5.50
2022-11-19T06:07:22.740Z,6.32
2022-11-19T06:09:51.276Z,6.05
2022-11-19T06:12:19.726Z,5.60
2022-11-19T06:14:48.330Z,6.22
2022-11-19T06:17:18.138Z,5.93
2022-11-19T06:19:46.709Z,7.82
2022-11-19T06:22:15.160Z,6.10
2022-11-19T06:24:43.646Z,6.35
2022-11-19T06:27:12.491Z,6.85
2022-11-19T06:29:40.926Z,6.40
2022-11-19T06:32:09.518Z,6.85
2022-11-19T06:34:39.520Z,7.72
2022-11-19T06:37:08.319Z,7.10
2022-11-19T06:39:36.771Z,5.97
2022-11-19T06:42:19.527Z,8.02
2022-11-19T06:44:50.572Z,6.68
2022-11-19T06:47:19.155Z,5.65
2022-11-19T06:49:49.126Z,6.57
2022-11-19T06:52:17.759Z,8.27
2022-11-19T06:54:46.610Z,5.93
2022-11-19T06:57:15.237Z,7.65
2022-11-19T06:59:43.834Z,6.75
2022-11-19T07:02:13.974Z,6.30
2022-11-19T07:04:44.781Z,8.60
2022-11-19T07:07:14.664Z,6.80
2022-11-19T07:09:43.302Z,6.68
2022-11-19T07:12:11.847Z,6.53
2022-11-19T07:14:40.278Z,7.45
2022-11-19T07:17:08.809Z,6.57
2022-11-19T07:19:37.391Z,5.95
2022-11-19T07:22:06.023Z,7.40
2022-11-19T07:24:36.102Z,6.18
2022-11-19T07:27:04.687Z,7.82
2022-11-19T07:29:33.222Z,8.27
2022-11-19T07:32:02.477Z,6.60
2022-11-19T07:34:30.941Z,7.05
2022-11-19T07:36:59.549Z,7.30
2022-11-19T07:39:28.008Z,8.15
2022-11-19T07:42:14.861Z,7.97
2022-11-19T07:44:43.435Z,9.35
2022-11-19T07:47:12.271Z,6.90
2022-11-19T07:49:40.783Z,6.18
2022-11-19T07:52:09.422Z,6.68
2022-11-19T07:54:37.954Z,7.70
2022-11-19T07:57:07.867Z,7.53
2022-11-19T07:59:36.563Z,7.82
2022-11-19T08:02:05.136Z,8.48
2022-11-19T08:04:33.828Z,6.70
2022-11-19T08:07:03.228Z,7.72
2022-11-19T08:09:31.792Z,6.60
2022-11-19T08:12:00.801Z,7.20
2022-11-19T08:14:30.695Z,6.45
2022-11-19T08:17:16.481Z,7.53
2022-11-19T08:19:46.528Z,9.07
2022-11-19T08:22:15.496Z,7.15
2022-11-19T08:24:44.031Z,8.70
2022-11-19T08:27:12.988Z,11.23
2022-11-19T08:29:43.012Z,8.38
2022-11-19T08:32:11.609Z,9.40
2022-11-19T08:34:40.187Z,9.15
2022-11-19T08:37:08.791Z,7.63
2022-11-19T08:39:37.334Z,9.80
2022-11-19T08:42:35.328Z,11.43
2022-11-19T08:45:06.941Z,16.42
2022-11-19T08:47:35.434Z,18.00
2022-11-19T08:50:03.984Z,13.15
2022-11-19T08:52:32.418Z,15.25
2022-11-19T08:55:00.947Z,10.25
2022-11-19T08:57:29.483Z,12.68
2022-11-19T09:00:17.675Z,17.63
2022-11-19T09:02:46.194Z,13.88
2022-11-19T09:05:15.009Z,14.32
2022-11-19T09:07:43.557Z,8.93
2022-11-19T09:10:12.213Z,15.13
2022-11-19T09:12:40.772Z,12.13
2022-11-19T09:15:10.683Z,11.65
2022-11-19T09:17:46.397Z,9.98
2022-11-19T09:20:15.716Z,9.27
2022-11-19T09:22:44.220Z,9.25
2022-11-19T09:25:13.116Z,11.15
2022-11-19T09:27:41.666Z,8.55
2022-11-19T09:30:15.282Z,9.05
2022-11-19T09:32:45.252Z,27.75
2022-11-19T09:35:13.953Z,49.88
2022-11-19T09:37:42.466Z,55.63
2022-11-19T09:40:13.213Z,63.45
2022-11-19T09:42:45.050Z,41.63
2022-11-19T09:45:20.592Z,62.38
2022-11-19T09:48:08.971Z,49.90
2022-11-19T09:50:50.401Z,73.63
2022-11-19T09:53:22.555Z,49.28
2022-11-19T09:55:52.818Z,49.17
2022-11-19T09:58:24.440Z,47.40
2022-11-19T10:00:52.958Z,58.47
2022-11-19T10:03:25.455Z,76.30
2022-11-19T10:06:20.985Z,80.18
2022-11-19T10:09:11.735Z,70.68
2022-11-19T10:11:50.700Z,55.20
2022-11-19T10:14:38.230Z,68.05
2022-11-19T10:17:12.316Z,53.38
2022-11-19T10:19:50.688Z,63.10
2022-11-19T10:22:22.928Z,67.35
2022-11-19T10:24:55.413Z,63.05
2022-11-19T10:27:27.363Z,63.08
2022-11-19T10:29:57.722Z,54.13
2022-11-19T10:32:32.778Z,54.90
2022-11-19T10:35:07.725Z,53.47
2022-11-19T10:37:39.914Z,48.15
2022-11-19T10:40:10.299Z,49.85
2022-11-19T10:42:40.753Z,48.53
2022-11-19T10:45:16.565Z,50.17
2022-11-19T10:47:48.754Z,47.55
2022-11-19T10:50:19.426Z,48.47
2022-11-19T10:52:50.919Z,48.20
2022-11-19T10:55:27.635Z,48.33
2022-11-19T10:58:09.786Z,44.40
2022-11-19T11:00:39.558Z,43.88
2022-11-19T11:03:16.768Z,43.88
2022-11-19T11:05:58.522Z,39.90
2022-11-19T11:08:27.159Z,40.63
2022-11-19T11:10:55.892Z,41.35
2022-11-19T11:13:54.278Z,43.00
2022-11-19T11:16:24.590Z,39.53
2022-11-19T11:18:54.172Z,35.88
2022-11-19T11:21:36.813Z,36.15
2022-11-19T11:24:05.983Z,40.38
2022-11-19T11:26:35.128Z,38.20
2022-11-19T11:29:05.418Z,36.47
2022-11-19T11:31:36.814Z,34.55
2022-11-19T11:34:05.753Z,35.83
2022-11-19T11:36:38.094Z,37.00
2022-11-19T11:39:07.441Z,32.78
2022-11-19T11:44:30.154Z,35.47
2022-11-19T11:47:00.082Z,35.47
2022-11-19T11:49:31.705Z,31.48
2022-11-19T11:52:07.381Z,36.83
2022-11-19T11:54:36.471Z,31.85
2022-11-19T11:57:15.981Z,34.88
2022-11-19T11:59:44.592Z,30.38
2022-11-19T12:02:23.271Z,31.75
2022-11-19T12:04:52.540Z,31.45
2022-11-19T12:07:37.907Z,29.45
2022-11-19T12:10:18.380Z,27.58
2022-11-19T12:12:50.321Z,32.75
2022-11-19T12:15:21.875Z,33.03
2022-11-19T12:17:54.079Z,29.50
2022-11-19T12:20:28.380Z,27.17
2022-11-19T12:23:13.732Z,28.33
2022-11-19T12:25:45.552Z,26.83
2022-11-19T12:28:33.579Z,27.95
2022-11-19T12:31:10.366Z,26.23
2022-11-19T12:33:56.243Z,27.00
2022-11-19T12:36:29.939Z,28.90
2022-11-19T12:39:03.544Z,27.55
2022-11-19T12:41:50.223Z,25.95
2022-11-19T12:44:30.784Z,27.63
2022-11-19T12:47:05.043Z,26.73
2022-11-19T12:49:55.274Z,25.30
2022-11-19T12:52:51.443Z,23.00
2022-11-19T12:55:26.597Z,25.45
2022-11-19T12:58:00.199Z,21.13
2022-11-19T13:00:29.349Z,22.27
2022-11-19T13:03:06.766Z,24.40
2022-11-19T13:05:41.224Z,28.35
2022-11-19T13:08:14.890Z,26.48
2022-11-19T13:10:47.903Z,19.30
2022-11-19T13:13:19.984Z,21.70
2022-11-19T13:15:52.520Z,23.90
2022-11-19T13:18:21.154Z,26.13
2022-11-19T13:20:51.854Z,20.77
2022-11-19T13:23:25.412Z,22.05
2022-11-19T13:25:59.027Z,22.05
2022-11-19T13:28:32.327Z,20.77
2022-11-19T13:31:11.148Z,24.02
2022-11-19T13:33:41.756Z,18.70
2022-11-19T13:36:16.780Z,21.80
2022-11-19T13:38:49.706Z,23.00
2022-11-19T13:41:21.928Z,20.88
2022-11-19T13:44:07.510Z,21.45
2022-11-19T13:46:39.623Z,19.25
2022-11-19T13:49:13.010Z,21.15
2022-11-19T13:51:44.651Z,18.13
2022-11-19T13:54:23.151Z,18.95
2022-11-19T13:56:54.614Z,23.13
2022-11-19T13:59:32.940Z,17.90
2022-11-19T14:02:17.136Z,19.27
2022-11-19T14:05:21.913Z,18.73
2022-11-19T14:08:06.843Z,19.45
2022-11-19T14:10:39.227Z,19.25
2022-11-19T14:13:32.063Z,19.38
2022-11-19T14:16:33.473Z,21.08
2022-11-19T14:19:35.866Z,18.25
2022-11-19T14:22:52.573Z,18.13
2022-11-19T14:26:02.632Z,19.13
2022-11-19T14:28:48.607Z,33.42
2022-11-19T14:31:19.622Z,40.10
2022-11-19T14:34:04.382Z,74.30
2022-11-19T14:36:46.019Z,125.15
2022-11-19T14:39:19.464Z,107.15
2022-11-19T14:41:48.236Z,86.55
2022-11-19T14:44:37.468Z,68.97
2022-11-19T14:47:34.000Z,95.80
2022-11-19T14:50:05.424Z,76.07
2022-11-19T14:52:36.218Z,104.53
2022-11-19T14:55:07.070Z,89.80
2022-11-19T14:57:36.646Z,103.70
2022-11-19T15:00:18.501Z,92.93
2022-11-19T15:02:48.926Z,95.20
2022-11-19T15:05:20.289Z,86.95
2022-11-19T15:07:55.578Z,84.88
2022-11-19T15:10:34.064Z,86.40
2022-11-19T15:13:21.220Z,87.10
2022-11-19T15:15:56.638Z,80.95
2022-11-19T15:19:23.166Z,77.18
2022-11-19T15:22:23.366Z,77.43
2022-11-19T15:25:15.284Z,73.30
2022-11-19T15:27:57.599Z,67.65
2022-11-19T15:30:29.717Z,66.05
2022-11-19T15:33:34.605Z,74.10
2022-11-19T15:36:31.476Z,72.20
2022-11-19T15:39:04.428Z,61.67
2022-11-19T15:41:39.648Z,62.15
2022-11-19T15:44:10.153Z,65.15
2022-11-19T15:46:42.326Z,66.38
2022-11-19T15:49:17.621Z,63.45
2022-11-19T15:51:58.086Z,54.75
2022-11-19T15:54:29.775Z,61.15
2022-11-19T15:57:02.641Z,50.47
2022-11-19T15:59:32.046Z,55.67
2022-11-19T16:02:02.198Z,58.10
2022-11-19T16:04:36.647Z,59.00
2022-11-19T16:07:06.058Z,53.03
2022-11-19T16:09:34.607Z,47.92
2022-11-19T16:12:20.711Z,54.40
2022-11-19T16:15:09.789Z,47.78
2022-11-19T16:17:44.349Z,54.90
2022-11-19T16:20:21.771Z,49.03
2022-11-19T16:22:55.857Z,48.17
2022-11-19T16:25:34.288Z,47.92
2022-11-19T16:28:05.704Z,47.53
2022-11-19T16:30:46.432Z,44.90
2022-11-19T16:33:18.801Z,51.25
2022-11-19T16:35:52.807Z,46.20
2022-11-19T16:38:28.090Z,41.10
2022-11-19T16:41:21.361Z,42.45
2022-11-19T16:44:12.608Z,44.42
2022-11-19T16:47:03.076Z,41.85
2022-11-19T16:50:03.085Z,43.25
2022-11-19T16:52:50.132Z,40.03
2022-11-19T16:55:44.078Z,38.08
2022-11-19T16:58:32.440Z,40.75
2022-11-19T17:01:22.024Z,38.13
2022-11-19T17:04:04.974Z,39.63
2022-11-19T17:06:53.352Z,38.88
2022-11-19T17:09:44.738Z,39.78
2022-11-19T17:12:27.555Z,43.13
2022-11-19T17:15:00.112Z,41.65
2022-11-19T17:17:41.077Z,33.08
2022-11-19T17:21:01.981Z,38.17
2022-11-19T17:23:32.069Z,36.97
2022-11-19T17:26:03.232Z,36.95
2022-11-19T17:28:38.276Z,38.08
2022-11-19T17:31:08.589Z,32.97
2022-11-19T17:33:37.238Z,37.42
2022-11-19T17:36:06.403Z,36.47
2022-11-19T17:38:34.879Z,32.03
2022-11-19T17:41:05.213Z,33.60
2022-11-19T17:43:52.581Z,33.10
2022-11-19T17:46:21.241Z,31.95
2022-11-19T17:48:50.190Z,35.45
2022-11-19T17:51:19.836Z,32.35
2022-11-19T17:53:49.457Z,38.45
2022-11-19T17:56:20.867Z,36.00
2022-11-19T17:58:49.420Z,30.85
2022-11-19T18:01:18.194Z,33.33
2022-11-19T18:03:46.732Z,34.70
2022-11-19T18:06:17.006Z,30.63
2022-11-19T18:08:45.551Z,32.05
2022-11-19T18:11:14.870Z,34.05
2022-11-19T18:13:45.019Z,34.35
2022-11-19T18:16:15.135Z,29.63
2022-11-19T18:18:43.654Z,30.92
2022-11-19T18:21:13.360Z,29.52
2022-11-19T18:23:42.040Z,28.02
2022-11-19T18:26:11.719Z,31.98
2022-11-19T18:28:42.557Z,31.77
2022-11-19T18:31:17.549Z,30.55
2022-11-19T18:33:48.023Z,24.80
2022-11-19T18:36:18.698Z,28.27
2022-11-19T18:38:47.390Z,28.92
2022-11-19T18:41:16.345Z,26.77
2022-11-19T18:44:02.380Z,30.08
2022-11-19T18:46:32.259Z,31.55
2022-11-19T18:49:00.733Z,27.95
2022-11-19T18:51:30.660Z,27.65
2022-11-19T18:53:59.190Z,26.05
2022-11-19T18:56:27.734Z,26.92
2022-11-19T18:58:59.193Z,33.10
2022-11-19T19:01:33.239Z,27.80
2022-11-19T19:04:02.152Z,29.13
2022-11-19T19:06:30.762Z,26.63
2022-11-19T19:08:59.441Z,28.45
2022-11-19T19:11:45.636Z,26.98
2022-11-19T19:14:15.102Z,26.08
2022-11-19T19:16:45.104Z,28.25
2022-11-19T19:19:18.306Z,25.13
2022-11-19T19:21:47.487Z,27.58
2022-11-19T19:24:16.030Z,27.20
2022-11-19T19:26:44.529Z,26.63
2022-11-19T19:29:13.113Z,26.48
2022-11-19T19:31:41.584Z,25.83
2022-11-19T19:34:11.553Z,26.30
2022-11-19T19:36:39.999Z,25.75
2022-11-19T19:39:08.570Z,22.58
2022-11-19T19:41:37.363Z,24.77
2022-11-19T19:44:07.190Z,23.13
2022-11-19T19:46:35.934Z,22.13
2022-11-19T19:49:04.479Z,23.48
2022-11-19T19:51:34.468Z,21.67
2022-11-19T19:54:03.074Z,24.08
2022-11-19T19:56:32.629Z,24.10
2022-11-19T19:59:01.483Z,22.10
2022-11-19T20:01:31.009Z,28.58
2022-11-19T20:04:02.135Z,21.20
2022-11-19T20:06:30.782Z,24.13
2022-11-19T20:09:04.361Z,21.20
2022-11-19T20:11:35.510Z,21.20
2022-11-19T20:14:04.048Z,22.38
2022-11-19T20:16:33.428Z,22.08
2022-11-19T20:19:02.525Z,18.23
2022-11-19T20:21:34.040Z,20.85
2022-11-19T20:24:10.391Z,19.75
2022-11-19T20:26:40.823Z,22.13
2022-11-19T20:29:09.981Z,19.27
2022-11-19T20:31:40.503Z,21.23
2022-11-19T20:34:09.062Z,18.83
2022-11-19T20:36:37.760Z,22.65
2022-11-19T20:39:07.906Z,21.63
2022-11-19T20:41:54.599Z,20.25
2022-11-19T20:44:23.409Z,18.85
2022-11-19T20:46:54.637Z,22.55
2022-11-19T20:49:25.732Z,18.98
2022-11-19T20:51:54.725Z,18.73
2022-11-19T20:54:24.635Z,19.58
2022-11-19T20:56:54.159Z,20.90
2022-11-19T20:59:23.002Z,21.40
2022-11-19T21:01:51.945Z,19.65
2022-11-19T21:04:20.651Z,19.00
2022-11-19T21:06:49.995Z,19.15
2022-11-19T21:09:19.674Z,17.67
2022-11-19T21:11:51.160Z,17.30
2022-11-19T21:14:20.114Z,17.63
2022-11-19T21:16:48.604Z,17.55
2022-11-19T21:19:17.063Z,23.67
2022-11-19T21:21:45.749Z,18.25
2022-11-19T21:24:14.538Z,21.13
2022-11-19T21:26:43.216Z,20.38
2022-11-19T21:29:13.142Z,25.98
2022-11-19T21:31:44.334Z,90.78
2022-11-19T21:34:14.071Z,238.55
2022-11-19T21:36:43.045Z,209.80
2022-11-19T21:39:11.936Z,179.60
2022-11-19T21:41:40.511Z,137.55
2022-11-19T21:44:09.011Z,130.35
2022-11-19T21:46:38.829Z,105.82
2022-11-19T21:49:07.311Z,76.45
2022-11-19T21:51:35.808Z,110.90
2022-11-19T21:54:04.347Z,96.05
2022-11-19T21:56:38.225Z,74.95
2022-11-19T21:59:07.901Z,65.07
2022-11-19T22:01:37.850Z,58.80
2022-11-19T22:04:06.848Z,73.80
2022-11-19T22:06:35.336Z,50.85
2022-11-19T22:09:05.327Z,72.75
2022-11-19T22:11:33.819Z,60.70
2022-11-19T22:14:03.850Z,58.83
2022-11-19T22:16:33.407Z,58.00
2022-11-19T22:19:03.456Z,56.80
2022-11-19T22:21:31.935Z,57.80
2022-11-19T22:24:01.149Z,51.30
2022-11-19T22:26:29.652Z,51.70
2022-11-19T22:28:58.270Z,49.75
2022-11-19T22:31:26.752Z,50.65
2022-11-19T22:33:55.645Z,50.72
2022-11-19T22:36:25.554Z,46.33
2022-11-19T22:38:54.052Z,48.08
2022-11-19T22:41:22.749Z,52.78
2022-11-19T22:43:51.548Z,49.92
2022-11-19T22:46:20.273Z,50.05
2022-11-19T22:48:49.343Z,49.45
2022-11-19T22:51:18.826Z,50.42
2022-11-19T22:53:48.807Z,45.90
2022-11-19T22:56:20.663Z,53.83
2022-11-19T22:58:49.978Z,49.63
2022-11-19T23:01:19.763Z,49.97
2022-11-19T23:03:48.414Z,49.20
2022-11-19T23:06:17.028Z,44.05
2022-11-19T23:08:45.736Z,43.15
2022-11-19T23:11:16.507Z,45.33
2022-11-19T23:13:44.586Z,47.20
2022-11-19T23:16:15.144Z,44.80
2022-11-19T23:18:47.016Z,40.75
2022-11-19T23:21:17.158Z,38.10
2022-11-19T23:23:45.742Z,36.97
2022-11-19T23:26:18.857Z,36.88
2022-11-19T23:28:50.445Z,39.08
2022-11-19T23:31:20.571Z,35.47
2022-11-19T23:33:50.746Z,33.17
2022-11-19T23:36:22.928Z,35.83
2022-11-19T23:38:51.550Z,33.17
2022-11-19T23:41:21.983Z,36.03
2022-11-19T23:43:51.238Z,32.67
2022-11-19T23:46:21.395Z,40.42
2022-11-19T23:48:50.335Z,34.20
2022-11-19T23:51:20.091Z,32.10
2022-11-19T23:53:48.643Z,30.25
2022-11-19T23:56:17.735Z,31.63
2022-11-19T23:58:47.512Z,34.20
